createdAt,value
2023-03-23T15:58:56.429Z,56.61
2023-03-23T16:04:19.514Z,58.60
2023-03-23T16:06:51.337Z,58.30
2023-03-23T16:09:22.258Z,58.34
2023-03-23T16:11:52.113Z,58.19
2023-03-23T16:14:21.801Z,59.46
2023-03-23T16:16:55.077Z,60.01
2023-03-23T16:19:24.907Z,59.94
2023-03-23T16:21:54.745Z,60.07
2023-03-23T16:24:26.455Z,59.68
2023-03-23T16:26:56.366Z,59.23
2023-03-23T16:29:46.721Z,59.26
2023-03-23T16:31:57.507Z,59.24
2023-03-23T16:34:28.932Z,59.14
2023-03-23T16:37:03.040Z,60.20
2023-03-23T16:39:32.936Z,59.82
2023-03-23T16:42:02.821Z,60.68
2023-03-23T16:44:32.904Z,60.52
2023-03-23T16:47:02.829Z,61.56
2023-03-23T16:49:32.644Z,61.56
2023-03-23T16:52:02.637Z,61.51
2023-03-23T16:54:32.156Z,62.04
2023-03-23T16:57:02.002Z,61.86
2023-03-23T16:59:31.865Z,62.50
2023-03-23T17:02:03.173Z,62.98
2023-03-23T17:04:34.362Z,62.93
2023-03-23T17:07:04.749Z,63.97
2023-03-23T17:09:35.370Z,63.79
2023-03-23T17:12:07.191Z,63.70
2023-03-23T17:14:37.070Z,63.49
2023-03-23T17:17:06.933Z,64.53
2023-03-23T17:19:37.254Z,63.19
2023-03-23T17:22:07.414Z,63.19
2023-03-23T17:24:37.226Z,63.39
2023-03-23T17:27:07.160Z,63.95
2023-03-23T17:29:36.956Z,64.71
2023-03-23T17:32:06.893Z,65.63
2023-03-23T17:34:36.797Z,66.40
2023-03-23T17:37:06.884Z,66.56
2023-03-23T17:39:42.518Z,67.92
2023-03-23T17:42:10.366Z,68.89
2023-03-23T17:44:40.249Z,68.09
2023-03-23T17:47:10.494Z,68.78
2023-03-23T17:49:40.373Z,68.58
2023-03-23T17:52:10.553Z,69.54
2023-03-23T17:54:40.400Z,69.00
2023-03-23T17:57:10.391Z,69.44
2023-03-23T17:59:40.430Z,69.15
2023-03-23T18:02:11.363Z,69.71
2023-03-23T18:04:42.885Z,70.64
2023-03-23T18:07:13.190Z,70.76
2023-03-23T18:09:45.293Z,72.04
2023-03-23T18:12:14.881Z,73.41
2023-03-23T18:14:44.793Z,73.35
2023-03-23T18:17:14.598Z,73.20
2023-03-23T18:19:46.527Z,73.85
2023-03-23T18:22:16.187Z,73.85
2023-03-23T18:24:46.157Z,74.37
2023-03-23T18:27:17.157Z,74.69
2023-03-23T18:29:47.342Z,74.50
2023-03-23T18:32:17.425Z,73.92
2023-03-23T18:34:47.438Z,74.82
2023-03-23T18:37:17.836Z,74.10
2023-03-23T18:39:47.654Z,73.80
2023-03-23T18:42:17.534Z,73.96
2023-03-23T18:44:47.490Z,73.54
2023-03-23T18:47:17.424Z,74.07
2023-03-23T18:49:48.903Z,73.47
2023-03-23T18:52:19.388Z,73.35
2023-03-23T18:54:49.389Z,73.44
2023-03-23T18:57:21.232Z,73.67
2023-03-23T18:59:51.648Z,73.89
2023-03-23T19:02:22.136Z,74.03
2023-03-23T19:04:52.083Z,73.80
2023-03-23T19:07:22.069Z,73.15
2023-03-23T19:09:51.920Z,72.93
2023-03-23T19:12:22.276Z,72.34
2023-03-23T19:14:52.571Z,72.54
2023-03-23T19:17:23.374Z,72.05
2023-03-23T19:19:53.523Z,71.87
2023-03-23T19:22:23.107Z,71.76
2023-03-23T19:24:52.915Z,71.04
2023-03-23T19:27:22.800Z,70.64
2023-03-23T19:29:52.751Z,70.64
2023-03-23T19:32:22.557Z,70.36
2023-03-23T19:34:52.528Z,70.04
2023-03-23T19:37:23.209Z,70.01
2023-03-23T19:39:53.134Z,69.63
2023-03-23T19:42:23.034Z,70.17
2023-03-23T19:44:52.881Z,69.97
2023-03-23T19:47:22.755Z,69.58
2023-03-23T19:49:52.642Z,69.18
2023-03-23T19:52:22.660Z,69.71
2023-03-23T19:54:53.255Z,69.71
2023-03-23T19:57:23.352Z,69.34
2023-03-23T20:02:23.261Z,69.64
2023-03-23T20:04:52.919Z,69.21
2023-03-23T20:07:25.575Z,68.74
2023-03-23T20:09:54.241Z,69.86
2023-03-23T20:12:24.168Z,69.86
2023-03-23T20:14:53.975Z,70.99
2023-03-23T20:17:23.876Z,71.42
2023-03-23T20:19:54.030Z,71.73
2023-03-23T20:22:23.593Z,73.23
2023-03-23T20:24:53.412Z,74.05
2023-03-23T20:27:23.592Z,75.05
2023-03-23T20:29:55.382Z,76.72
2023-03-23T20:32:25.289Z,76.72
2023-03-23T20:34:56.988Z,76.99
2023-03-23T20:37:26.972Z,79.10
2023-03-23T20:39:57.166Z,79.10
2023-03-23T20:42:28.314Z,80.27
2023-03-23T20:44:58.150Z,80.74
2023-03-23T20:47:28.220Z,80.79
2023-03-23T20:49:58.605Z,81.62
2023-03-23T20:52:28.495Z,81.89
2023-03-23T20:54:58.748Z,82.23
2023-03-23T20:57:28.844Z,81.58
2023-03-23T20:59:58.676Z,82.98
2023-03-23T21:02:29.589Z,84.21
2023-03-23T21:05:01.181Z,83.41
2023-03-23T21:07:30.999Z,83.22
2023-03-23T21:10:01.136Z,84.64
2023-03-23T21:12:31.882Z,84.92
2023-03-23T21:15:01.724Z,85.58
2023-03-23T21:17:31.286Z,85.58
2023-03-23T21:20:03.495Z,86.42
2023-03-23T21:22:33.146Z,87.36
2023-03-23T21:25:02.941Z,88.26
2023-03-23T21:27:32.767Z,87.76
2023-03-23T21:30:02.997Z,87.28
2023-03-23T21:32:32.864Z,87.31
2023-03-23T21:35:02.862Z,87.71
2023-03-23T21:37:33.222Z,87.95
2023-03-23T21:40:03.698Z,87.75
2023-03-23T21:42:34.033Z,87.03
2023-03-23T21:45:03.972Z,86.44
2023-03-23T21:47:34.005Z,86.10
2023-03-23T21:50:04.837Z,86.17
2023-03-23T21:52:35.972Z,86.36
2023-03-23T21:55:07.950Z,86.56
2023-03-23T21:57:37.828Z,85.68
2023-03-23T22:00:11.583Z,86.20
2023-03-23T22:02:41.925Z,85.52
2023-03-23T22:05:11.825Z,86.32
2023-03-23T22:07:43.510Z,86.29
2023-03-23T22:10:14.507Z,85.82
2023-03-23T22:12:44.321Z,86.20
2023-03-23T22:15:15.636Z,86.49
2023-03-23T22:17:45.536Z,86.10
2023-03-23T22:20:17.573Z,86.25
2023-03-23T22:22:47.332Z,87.04
2023-03-23T22:25:17.347Z,86.61
2023-03-23T22:27:47.439Z,86.25
2023-03-23T22:30:17.689Z,87.29
2023-03-23T22:32:47.606Z,87.33
2023-03-23T22:35:18.020Z,88.08
2023-03-23T22:37:48.200Z,88.02
2023-03-23T22:40:19.408Z,87.90
2023-03-23T22:42:49.316Z,88.19
2023-03-23T22:45:19.528Z,88.68
2023-03-23T22:47:49.445Z,89.95
2023-03-23T22:50:20.967Z,89.53
2023-03-23T22:52:50.901Z,89.53
2023-03-23T22:55:21.228Z,90.39
2023-03-23T22:57:51.010Z,91.42
2023-03-23T23:00:20.964Z,91.31
2023-03-23T23:02:50.877Z,91.31
2023-03-23T23:05:20.910Z,92.28
2023-03-23T23:07:50.708Z,92.74
2023-03-23T23:10:20.819Z,92.00
2023-03-23T23:12:52.257Z,92.60
2023-03-23T23:15:22.234Z,92.15
2023-03-23T23:17:52.007Z,92.56
2023-03-23T23:20:23.461Z,93.24
2023-03-23T23:22:53.620Z,92.55
2023-03-23T23:25:23.609Z,93.61
2023-03-23T23:27:53.608Z,93.40
2023-03-23T23:30:23.406Z,93.98
2023-03-23T23:32:54.119Z,93.60
2023-03-23T23:35:24.374Z,93.12
2023-03-23T23:37:54.990Z,93.12
2023-03-23T23:40:24.832Z,93.15
2023-03-23T23:42:54.631Z,94.10
2023-03-23T23:45:24.607Z,93.96
2023-03-23T23:47:54.610Z,93.20
2023-03-23T23:50:24.788Z,93.17
2023-03-23T23:52:55.128Z,93.17
2023-03-23T23:55:25.412Z,93.21
2023-03-23T23:57:55.929Z,94.02
